Time;durP1;ratioP1;P1;durP2;ratioP2;P2;SDS_P1;SDS_P2;PMS_P1;PMS_P2;Temp;Humidity;BMP_temperature;BMP_pressure;BME280_temperature;BME280_humidity;BME280_pressure;Samples;Min_cycle;Max_cycle;Signal;HPM_P1;HPM_P2
2022/05/29 00:02:15;;;;;;;11.00;3.23;;;15.90;53.50;;;;;;5074851;28;20247;-89
2022/05/29 00:04:47;;;;;;;6.70;2.10;;;15.90;53.30;;;;;;5072131;28;20899;-94
2022/05/29 00:07:20;;;;;;;12.00;3.27;;;15.90;53.40;;;;;;5068255;28;20209;-90
2022/05/29 00:09:52;;;;;;;10.87;3.00;;;15.90;53.40;;;;;;5068949;28;20207;-91
2022/05/29 00:12:25;;;;;;;6.60;2.27;;;15.80;53.50;;;;;;5072480;28;20716;-92
2022/05/29 00:14:54;;;;;;;7.57;2.13;;;15.80;53.50;;;;;;5071016;28;20192;-89
2022/05/29 00:17:23;;;;;;;8.03;2.70;;;15.80;53.40;;;;;;5074345;28;20212;-90
2022/05/29 00:19:51;;;;;;;9.93;2.60;;;15.80;53.40;;;;;;5071939;28;20562;-90
2022/05/29 00:22:25;;;;;;;11.17;3.13;;;15.80;53.30;;;;;;5081260;28;20256;-90
2022/05/29 00:24:58;;;;;;;6.27;1.67;;;15.70;53.30;;;;;;5083995;28;20218;-90
2022/05/29 00:27:26;;;;;;;8.37;2.20;;;15.70;53.50;;;;;;5076637;28;20231;-90
2022/05/29 00:29:57;;;;;;;6.20;2.00;;;15.70;53.70;;;;;;5076849;28;20218;-90
2022/05/29 00:32:25;;;;;;;7.43;2.37;;;15.70;53.80;;;;;;5080960;28;20256;-90
2022/05/29 00:34:52;;;;;;;6.73;1.80;;;15.70;54.00;;;;;;5073896;28;20222;-91
2022/05/29 00:37:19;;;;;;;7.87;2.63;;;15.70;54.30;;;;;;5073338;28;20205;-91
2022/05/29 00:39:48;;;;;;;6.83;2.17;;;15.70;54.30;;;;;;5072770;28;20242;-92
2022/05/29 00:42:16;;;;;;;7.80;2.50;;;15.60;54.30;;;;;;5073165;28;20269;-92
2022/05/29 00:44:44;;;;;;;9.37;2.63;;;15.60;54.50;;;;;;5068964;28;20226;-90
2022/05/29 00:47:15;;;;;;;8.73;2.47;;;15.60;54.60;;;;;;5071294;28;20231;-92
2022/05/29 00:49:44;;;;;;;6.97;2.40;;;15.60;54.60;;;;;;5072063;28;20655;-91
2022/05/29 00:52:16;;;;;;;13.47;3.77;;;15.60;54.70;;;;;;5070787;28;20241;-90
2022/05/29 00:54:53;;;;;;;9.63;2.60;;;15.60;55.00;;;;;;5074327;28;20203;-92
2022/05/29 00:57:25;;;;;;;8.57;2.50;;;15.60;54.80;;;;;;5068288;28;20223;-91
2022/05/29 00:59:57;;;;;;;10.57;2.67;;;15.50;54.70;;;;;;5071586;28;20203;-89
2022/05/29 01:02:26;;;;;;;20.10;5.97;;;15.60;54.80;;;;;;5070387;28;20215;-90
2022/05/29 01:04:53;;;;;;;7.37;2.30;;;15.60;54.60;;;;;;5073452;28;20215;-90
2022/05/29 01:07:23;;;;;;;16.13;4.67;;;15.50;54.80;;;;;;5067428;28;20204;-91
2022/05/29 01:09:51;;;;;;;13.03;3.97;;;15.60;55.00;;;;;;5072757;28;20291;-92
2022/05/29 01:12:42;;;;;;;8.57;2.47;;;15.50;55.30;;;;;;5072445;28;20710;-88
2022/05/29 01:15:23;;;;;;;15.87;3.97;;;15.50;55.00;;;;;;5069976;28;20242;-91
2022/05/29 01:18:00;;;;;;;6.47;2.33;;;15.50;55.10;;;;;;5070658;28;20207;-91
2022/05/29 01:21:04;;;;;;;9.63;2.27;;;15.50;54.90;;;;;;5072595;28;20193;-90
2022/05/29 01:24:00;;;;;;;9.50;2.90;;;15.40;55.50;;;;;;5077193;28;20253;-91
2022/05/29 01:27:07;;;;;;;8.23;2.70;;;15.40;55.00;;;;;;5077797;28;20233;-91
2022/05/29 01:29:43;;;;;;;10.43;2.60;;;15.30;55.40;;;;;;5072343;28;20227;-90
2022/05/29 01:32:20;;;;;;;10.57;3.03;;;15.30;55.30;;;;;;5072571;28;21050;-92
2022/05/29 01:34:51;;;;;;;11.37;3.47;;;15.30;54.90;;;;;;5072192;28;20221;-90
2022/05/29 01:37:27;;;;;;;12.17;3.57;;;15.20;54.80;;;;;;5051093;28;20203;-90
2022/05/29 01:40:07;;;;;;;9.10;2.77;;;15.20;55.30;;;;;;5067602;28;20214;-91
2022/05/29 01:42:38;;;;;;;11.80;3.20;;;15.10;55.10;;;;;;5066256;28;20223;-89
2022/05/29 01:45:13;;;;;;;13.80;3.57;;;15.10;55.10;;;;;;5060776;28;20882;-92
2022/05/29 01:47:45;;;;;;;11.40;3.40;;;15.00;55.20;;;;;;5063621;28;20718;-91
2022/05/29 01:50:21;;;;;;;10.63;3.00;;;15.00;55.50;;;;;;5066778;28;20209;-91
2022/05/29 01:52:55;;;;;;;6.97;2.17;;;15.00;55.70;;;;;;5073338;28;20221;-90
2022/05/29 01:55:34;;;;;;;11.50;3.13;;;14.90;55.60;;;;;;5065623;28;20211;-92
2022/05/29 01:58:05;;;;;;;10.87;3.17;;;14.90;55.60;;;;;;5058443;28;20662;-92
2022/05/29 02:00:41;;;;;;;10.20;3.03;;;14.80;55.90;;;;;;5066046;28;20664;-92
2022/05/29 02:03:12;;;;;;;12.60;3.23;;;14.70;56.10;;;;;;5073846;28;21891;-91
2022/05/29 02:05:47;;;;;;;15.37;4.40;;;14.70;56.20;;;;;;5061363;28;20285;-92
2022/05/29 02:08:19;;;;;;;10.27;3.20;;;14.70;56.50;;;;;;5066674;28;20244;-89
2022/05/29 02:10:53;;;;;;;11.03;2.80;;;14.70;56.30;;;;;;5068732;28;20292;-91
2022/05/29 02:13:29;;;;;;;7.20;2.33;;;14.60;56.50;;;;;;5064161;28;20203;-90
2022/05/29 02:16:03;;;;;;;8.83;2.40;;;14.60;56.70;;;;;;5074003;28;20209;-90
2022/05/29 02:18:36;;;;;;;10.40;2.80;;;14.50;56.40;;;;;;5086478;28;20197;-92
2022/05/29 02:21:10;;;;;;;6.30;1.97;;;14.40;56.40;;;;;;5086011;28;20227;-91
2022/05/29 02:23:40;;;;;;;6.00;2.17;;;14.40;56.60;;;;;;5076165;28;20230;-91
2022/05/29 02:26:11;;;;;;;7.10;2.30;;;14.40;56.70;;;;;;5066489;28;20632;-91
2022/05/29 02:28:43;;;;;;;7.23;2.60;;;14.30;56.60;;;;;;5054699;28;20220;-92
2022/05/29 02:31:20;;;;;;;9.97;2.60;;;14.30;56.80;;;;;;5068826;28;20199;-91
2022/05/29 02:33:56;;;;;;;12.83;3.17;;;14.30;56.90;;;;;;5075793;28;20228;-91
2022/05/29 02:36:36;;;;;;;9.20;2.73;;;14.30;57.10;;;;;;5065149;28;20208;-91
2022/05/29 02:39:24;;;;;;;8.73;2.33;;;14.20;57.10;;;;;;5055008;28;20206;-91
2022/05/29 02:42:07;;;;;;;6.77;2.13;;;14.20;57.00;;;;;;5067490;28;20225;-90
2022/05/29 02:44:59;;;;;;;6.80;2.23;;;14.20;57.20;;;;;;5075118;28;20199;-90
2022/05/29 02:47:35;;;;;;;18.33;4.13;;;14.10;57.10;;;;;;5071286;28;20673;-90
2022/05/29 02:50:17;;;;;;;7.20;2.17;;;14.10;56.90;;;;;;5074812;28;20225;-91
2022/05/29 02:52:45;;;;;;;9.93;2.30;;;14.00;57.00;;;;;;5074299;28;20200;-90
2022/05/29 02:55:12;;;;;;;10.57;2.97;;;14.00;56.70;;;;;;5069955;28;20205;-91
2022/05/29 02:57:40;;;;;;;9.53;2.63;;;14.00;56.80;;;;;;5072709;28;20286;-92
2022/05/29 03:00:12;;;;;;;8.60;2.67;;;13.90;57.70;;;;;;5074990;28;20270;-93
2022/05/29 03:02:52;;;;;;;14.87;3.57;;;13.90;57.20;;;;;;5081988;28;20208;-91
2022/05/29 03:05:26;;;;;;;11.17;3.33;;;13.90;57.50;;;;;;5079819;28;20329;-94
2022/05/29 03:08:12;;;;;;;8.00;2.20;;;13.80;58.20;;;;;;5078833;28;20709;-93
2022/05/29 03:10:43;;;;;;;8.03;2.50;;;13.80;57.80;;;;;;5077192;28;20286;-91
2022/05/29 03:13:14;;;;;;;13.67;3.17;;;13.80;57.60;;;;;;5076849;28;20217;-91
2022/05/29 03:15:50;;;;;;;20.93;5.40;;;13.80;57.70;;;;;;5074048;28;20287;-89
2022/05/29 03:18:37;;;;;;;15.43;2.57;;;13.80;57.90;;;;;;5055012;28;20206;-88
2022/05/29 03:21:12;;;;;;;6.47;2.10;;;13.80;57.90;;;;;;5064325;28;20215;-91
2022/05/29 03:23:45;;;;;;;8.40;2.63;;;13.80;57.60;;;;;;5075466;28;20267;-91
2022/05/29 03:26:19;;;;;;;12.77;3.33;;;13.80;57.60;;;;;;5072910;28;20205;-89
2022/05/29 03:28:50;;;;;;;7.23;2.77;;;13.90;57.70;;;;;;5073062;28;20323;-87
2022/05/29 03:31:23;;;;;;;17.57;5.07;;;13.90;57.50;;;;;;5057641;28;20902;-89
2022/05/29 03:33:52;;;;;;;8.83;2.30;;;13.90;57.50;;;;;;5059670;28;20223;-89
2022/05/29 03:36:19;;;;;;;7.43;2.43;;;13.90;57.20;;;;;;5065725;28;20316;-92
2022/05/29 03:38:47;;;;;;;11.10;3.57;;;13.90;57.20;;;;;;5057973;28;20203;-90
2022/05/29 03:41:30;;;;;;;11.87;3.00;;;13.90;57.20;;;;;;5073565;28;20273;-89
2022/05/29 03:44:02;;;;;;;9.47;2.90;;;14.00;57.40;;;;;;5054870;28;20231;-90
2022/05/29 03:46:29;;;;;;;12.07;3.20;;;14.00;57.10;;;;;;5057668;28;20983;-90
2022/05/29 03:48:58;;;;;;;7.40;2.17;;;14.00;57.00;;;;;;5071479;28;20265;-90
2022/05/29 03:51:27;;;;;;;17.30;4.47;;;14.00;57.00;;;;;;5069494;28;20339;-91
2022/05/29 03:53:55;;;;;;;9.90;2.80;;;14.00;57.00;;;;;;5067918;28;20312;-91
2022/05/29 03:56:23;;;;;;;12.37;3.43;;;14.00;56.90;;;;;;5061206;28;20186;-90
2022/05/29 03:58:50;;;;;;;6.93;2.27;;;14.00;56.90;;;;;;5088308;28;20679;-90
2022/05/29 04:01:17;;;;;;;6.90;2.20;;;14.10;56.70;;;;;;5071441;28;20233;-90
2022/05/29 04:03:44;;;;;;;7.60;2.17;;;14.10;56.60;;;;;;5059779;28;20245;-91
2022/05/29 04:06:15;;;;;;;14.20;3.93;;;14.10;56.70;;;;;;5062516;28;20224;-92
2022/05/29 04:14:12;;;;;;;12.03;2.83;;;14.10;56.30;;;;;;5053991;28;20594;-93
2022/05/29 04:16:39;;;;;;;9.43;2.67;;;14.10;56.30;;;;;;5056186;28;20293;-93
2022/05/29 04:19:06;;;;;;;11.53;3.13;;;14.00;56.20;;;;;;5060597;28;20405;-91
2022/05/29 04:21:35;;;;;;;10.83;2.80;;;14.10;56.30;;;;;;5075320;28;20274;-91
2022/05/29 04:24:02;;;;;;;7.50;2.47;;;14.00;56.30;;;;;;5073596;28;20222;-92
2022/05/29 04:26:29;;;;;;;8.30;2.30;;;14.00;56.40;;;;;;5074257;28;20232;-93
2022/05/29 04:28:56;;;;;;;9.23;2.50;;;14.00;56.70;;;;;;5076878;28;20230;-91
2022/05/29 04:31:24;;;;;;;11.10;3.03;;;14.00;56.90;;;;;;5073668;28;20209;-91
2022/05/29 04:33:53;;;;;;;11.17;2.57;;;14.00;57.00;;;;;;5075480;28;20571;-90
2022/05/29 04:36:20;;;;;;;10.10;2.77;;;14.00;57.10;;;;;;5075178;28;20211;-92
2022/05/29 04:38:50;;;;;;;7.97;2.67;;;13.90;57.20;;;;;;5073980;28;20206;-91
2022/05/29 04:41:19;;;;;;;7.33;2.27;;;13.90;57.40;;;;;;5062174;28;20661;-93
2022/05/29 04:43:46;;;;;;;9.67;2.47;;;13.90;57.50;;;;;;5070994;28;20181;-94
2022/05/29 04:46:15;;;;;;;12.63;3.83;;;13.90;57.90;;;;;;5080652;28;20202;-92
2022/05/29 04:48:43;;;;;;;8.57;2.30;;;13.90;58.50;;;;;;5073674;28;20209;-91
2022/05/29 04:51:14;;;;;;;7.07;2.33;;;13.80;58.60;;;;;;5076733;28;20195;-93
2022/05/29 04:53:44;;;;;;;11.47;3.53;;;13.80;58.90;;;;;;5073101;28;20708;-91
2022/05/29 04:56:13;;;;;;;12.27;3.43;;;13.80;58.70;;;;;;5070995;28;20287;-90
2022/05/29 04:58:43;;;;;;;11.87;3.77;;;13.80;58.80;;;;;;5075313;28;20235;-90
2022/05/29 05:01:11;;;;;;;11.63;3.23;;;13.80;58.80;;;;;;5071915;28;20215;-89
2022/05/29 05:03:38;;;;;;;8.83;2.77;;;13.80;58.70;;;;;;5071870;28;20238;-89
2022/05/29 05:06:05;;;;;;;12.60;3.17;;;13.90;58.90;;;;;;5060330;28;20623;-89
2022/05/29 05:08:34;;;;;;;8.47;2.60;;;13.90;58.90;;;;;;5072902;28;20284;-88
2022/05/29 05:11:01;;;;;;;10.10;2.87;;;13.90;59.30;;;;;;5065073;28;20214;-89
2022/05/29 05:13:30;;;;;;;7.33;2.63;;;13.90;59.30;;;;;;5077679;28;20197;-88
2022/05/29 05:16:01;;;;;;;10.37;3.17;;;13.90;59.40;;;;;;5061077;28;20547;-90
2022/05/29 05:18:28;;;;;;;12.00;3.63;;;13.90;59.40;;;;;;5054251;28;20210;-89
2022/05/29 05:20:55;;;;;;;11.63;3.33;;;13.90;59.40;;;;;;5062674;28;20268;-89
2022/05/29 05:23:22;;;;;;;9.13;3.27;;;14.00;59.60;;;;;;5075797;28;20294;-87
2022/05/29 05:25:49;;;;;;;11.40;3.50;;;14.00;60.00;;;;;;5060737;28;20296;-89
2022/05/29 05:28:17;;;;;;;10.87;3.40;;;14.00;60.80;;;;;;5067799;28;20209;-88
2022/05/29 05:30:47;;;;;;;5.97;2.53;;;14.00;61.10;;;;;;5063621;28;20238;-87
2022/05/29 05:33:15;;;;;;;16.20;4.40;;;14.00;61.50;;;;;;5049164;28;20212;-89
2022/05/29 05:35:42;;;;;;;15.87;4.63;;;14.10;61.70;;;;;;5069307;28;20244;-90
2022/05/29 05:38:09;;;;;;;12.80;3.30;;;14.10;62.20;;;;;;5069294;28;20292;-89
2022/05/29 05:40:36;;;;;;;10.60;3.00;;;14.10;62.70;;;;;;5051608;28;20258;-89
2022/05/29 05:43:03;;;;;;;10.77;3.03;;;14.10;63.10;;;;;;5053976;28;20292;-90
2022/05/29 05:45:30;;;;;;;6.37;2.27;;;14.20;63.60;;;;;;5070683;28;20265;-90
2022/05/29 05:47:59;;;;;;;15.90;4.70;;;14.20;63.70;;;;;;5069171;28;20207;-91
2022/05/29 05:50:26;;;;;;;12.10;3.03;;;14.20;64.20;;;;;;5051096;28;20277;-91
2022/05/29 05:52:53;;;;;;;10.33;2.47;;;14.30;64.30;;;;;;5056257;28;20278;-91
2022/05/29 05:55:24;;;;;;;5.37;2.23;;;14.30;64.40;;;;;;5066915;28;20679;-90
2022/05/29 05:57:53;;;;;;;13.00;3.60;;;14.30;65.00;;;;;;5065345;28;20267;-90
2022/05/29 06:00:21;;;;;;;10.57;3.13;;;14.40;64.40;;;;;;5057965;28;20633;-90
2022/05/29 06:02:48;;;;;;;11.03;3.40;;;14.40;64.20;;;;;;5069923;28;20652;-89
2022/05/29 06:05:17;;;;;;;17.53;4.43;;;14.40;63.80;;;;;;5067549;28;20222;-89
2022/05/29 06:07:44;;;;;;;10.40;3.50;;;14.50;64.10;;;;;;5071864;28;20258;-90
2022/05/29 06:10:11;;;;;;;10.23;2.80;;;14.50;64.30;;;;;;5067782;28;20338;-92
2022/05/29 06:12:43;;;;;;;6.80;2.40;;;14.60;65.00;;;;;;5056131;28;20293;-90
2022/05/29 06:15:12;;;;;;;12.03;3.23;;;14.60;65.20;;;;;;5061746;28;20243;-89
2022/05/29 06:17:39;;;;;;;11.13;3.23;;;14.70;64.70;;;;;;5072060;28;20214;-88
2022/05/29 06:20:09;;;;;;;10.83;3.13;;;14.80;64.10;;;;;;5071929;28;20239;-90
2022/05/29 06:22:38;;;;;;;10.27;3.07;;;14.80;63.90;;;;;;5074867;28;20296;-90
2022/05/29 06:25:07;;;;;;;12.93;3.30;;;14.80;64.10;;;;;;5074990;28;20317;-89
2022/05/29 06:27:37;;;;;;;8.70;2.13;;;14.90;64.40;;;;;;5090693;28;20225;-88
2022/05/29 06:30:07;;;;;;;8.90;3.00;;;15.00;64.30;;;;;;5073432;28;20223;-90
2022/05/29 06:32:34;;;;;;;14.40;3.93;;;15.00;64.40;;;;;;5074547;28;20217;-89
2022/05/29 06:35:02;;;;;;;8.83;2.70;;;15.10;64.40;;;;;;5071478;28;20202;-90
2022/05/29 06:37:29;;;;;;;12.00;3.23;;;15.10;64.80;;;;;;5074701;28;20214;-90
2022/05/29 06:40:00;;;;;;;12.33;3.77;;;15.20;65.10;;;;;;5070133;28;20229;-92
2022/05/29 06:42:27;;;;;;;7.37;2.67;;;15.20;65.60;;;;;;5073424;28;20296;-91
2022/05/29 06:44:54;;;;;;;10.57;3.13;;;15.30;65.40;;;;;;5056174;28;20218;-90
2022/05/29 06:47:21;;;;;;;17.70;5.03;;;15.30;65.30;;;;;;5053402;28;20590;-91
2022/05/29 06:49:49;;;;;;;12.00;3.60;;;15.30;65.20;;;;;;5070841;28;20340;-91
2022/05/29 06:52:18;;;;;;;8.70;2.63;;;15.30;65.30;;;;;;5073658;28;20212;-90
2022/05/29 06:54:45;;;;;;;17.00;4.80;;;15.40;65.20;;;;;;5065913;28;20286;-89
2022/05/29 06:57:36;;;;;;;8.43;2.30;;;15.40;64.50;;;;;;5060280;28;20280;-90
2022/05/29 07:08:15;;;;;;;10.70;3.67;;;15.50;64.20;;;;;;5063686;28;20208;-90
2022/05/29 07:10:42;;;;;;;18.73;5.47;;;15.40;63.60;;;;;;5068432;28;20279;-91
2022/05/29 07:13:11;;;;;;;6.20;2.43;;;15.50;63.70;;;;;;5070996;28;20977;-91
2022/05/29 07:15:38;;;;;;;10.40;3.37;;;15.40;63.80;;;;;;5078699;28;20229;-89
2022/05/29 07:18:05;;;;;;;8.13;3.03;;;15.50;64.10;;;;;;5067333;28;20199;-92
2022/05/29 07:20:33;;;;;;;8.77;2.50;;;15.50;65.30;;;;;;5072077;28;20295;-92
2022/05/29 07:23:00;;;;;;;10.07;3.30;;;15.50;65.60;;;;;;5065721;28;20243;-89
2022/05/29 07:25:29;;;;;;;10.70;3.30;;;15.50;65.50;;;;;;5058481;28;20226;-90
2022/05/29 07:27:57;;;;;;;8.10;2.93;;;15.60;66.40;;;;;;5069913;28;20226;-90
2022/05/29 07:30:25;;;;;;;10.70;3.53;;;15.60;66.70;;;;;;5064336;28;20231;-91
2022/05/29 07:32:52;;;;;;;10.47;3.30;;;15.70;66.80;;;;;;5068587;28;20302;-90
2022/05/29 07:35:19;;;;;;;10.53;3.50;;;15.70;66.10;;;;;;5064830;28;20295;-89
2022/05/29 07:37:46;;;;;;;10.43;3.27;;;15.80;66.40;;;;;;5067276;28;20290;-89
2022/05/29 07:40:14;;;;;;;20.80;5.73;;;15.80;65.70;;;;;;5066644;28;20258;-91
2022/05/29 07:45:30;;;;;;;13.87;4.10;;;15.90;66.30;;;;;;5064762;28;20744;-91
2022/05/29 07:47:57;;;;;;;7.63;2.70;;;16.00;67.10;;;;;;5073705;28;20246;-89
2022/05/29 07:50:30;;;;;;;9.00;2.97;;;16.00;66.50;;;;;;5065132;28;21113;-88
2022/05/29 07:52:57;;;;;;;12.97;3.87;;;16.00;66.60;;;;;;5075568;28;20237;-90
2022/05/29 07:55:35;;;;;;;8.30;2.63;;;16.00;66.00;;;;;;5076440;28;20236;-89
2022/05/29 07:58:07;;;;;;;6.77;2.00;;;16.00;66.70;;;;;;5083510;28;20224;-87
2022/05/29 08:03:38;;;;;;;15.47;3.83;;;16.00;67.60;;;;;;5078507;28;20259;-87
2022/05/29 08:06:06;;;;;;;15.33;3.80;;;16.00;66.70;;;;;;5077256;28;20217;-90
2022/05/29 08:08:41;;;;;;;7.17;2.33;;;16.10;66.30;;;;;;5076563;28;20237;-87
2022/05/29 08:11:10;;;;;;;9.60;2.97;;;16.10;66.60;;;;;;5089150;28;20477;-87
2022/05/29 08:13:39;;;;;;;10.53;3.53;;;16.10;67.50;;;;;;5070420;28;20692;-87
2022/05/29 08:16:09;;;;;;;10.80;3.53;;;16.10;66.80;;;;;;5072645;28;20211;-88
2022/05/29 08:18:36;;;;;;;6.60;2.57;;;16.20;66.70;;;;;;5080497;28;20215;-88
2022/05/29 08:21:04;;;;;;;10.80;3.50;;;16.20;67.10;;;;;;5075211;28;20215;-88
2022/05/29 08:23:31;;;;;;;6.20;2.30;;;16.20;67.50;;;;;;5069549;28;20239;-88
2022/05/29 08:31:32;;;;;;;10.30;2.97;;;16.30;66.90;;;;;;5067925;28;20309;-87
2022/05/29 08:33:59;;;;;;;9.00;2.90;;;16.40;67.50;;;;;;5076239;28;20582;-88
2022/05/29 08:36:28;;;;;;;14.67;4.43;;;16.40;66.90;;;;;;5071088;28;20669;-88
2022/05/29 08:38:57;;;;;;;7.30;2.20;;;16.60;67.20;;;;;;5077608;28;20708;-88
2022/05/29 08:41:33;;;;;;;8.60;2.77;;;16.60;66.60;;;;;;5066467;28;20225;-89
2022/05/29 08:44:05;;;;;;;5.50;1.90;;;16.80;66.10;;;;;;5074800;28;20208;-87
2022/05/29 08:46:38;;;;;;;9.77;3.37;;;16.90;65.30;;;;;;5070245;28;20237;-88
2022/05/29 08:49:05;;;;;;;8.03;2.53;;;17.00;64.70;;;;;;5073518;28;20261;-88
2022/05/29 08:52:06;;;;;;;9.10;3.17;;;17.10;64.00;;;;;;5077626;28;20762;-87
2022/05/29 08:54:46;;;;;;;5.70;2.10;;;17.20;63.20;;;;;;5073698;28;20229;-86
2022/05/29 08:57:31;;;;;;;12.93;3.67;;;17.30;63.50;;;;;;5077963;28;20309;-88
2022/05/29 09:00:08;;;;;;;6.57;2.33;;;17.40;63.00;;;;;;5077124;28;20307;-87
2022/05/29 09:02:45;;;;;;;9.37;2.87;;;17.40;62.60;;;;;;5074189;28;20700;-88
2022/05/29 09:05:19;;;;;;;15.23;4.10;;;17.50;62.60;;;;;;5074379;28;20245;-89
2022/05/29 09:07:49;;;;;;;7.27;2.70;;;17.60;62.20;;;;;;5059992;28;20243;-91
2022/05/29 09:10:22;;;;;;;11.17;3.50;;;17.50;61.90;;;;;;5060818;28;20245;-89
2022/05/29 09:12:52;;;;;;;12.10;3.77;;;17.60;60.90;;;;;;5057447;28;20341;-88
2022/05/29 09:15:31;;;;;;;12.43;4.03;;;17.60;60.30;;;;;;5051075;28;20313;-88
2022/05/29 09:18:03;;;;;;;13.03;3.87;;;17.70;60.60;;;;;;5068344;28;20595;-88
2022/05/29 09:20:33;;;;;;;11.23;3.77;;;17.70;60.90;;;;;;5059371;28;20237;-91
2022/05/29 09:23:02;;;;;;;10.37;3.23;;;17.80;60.80;;;;;;5065463;28;20279;-89
2022/05/29 09:25:32;;;;;;;14.27;4.23;;;17.80;60.50;;;;;;5068853;28;20214;-91
2022/05/29 09:28:02;;;;;;;10.83;3.57;;;17.90;60.60;;;;;;5061916;28;20305;-90
2022/05/29 09:30:30;;;;;;;9.67;3.30;;;17.90;60.60;;;;;;5062587;28;20846;-89
2022/05/29 09:33:02;;;;;;;15.07;3.93;;;18.00;60.70;;;;;;5061197;28;20587;-90
2022/05/29 09:35:33;;;;;;;9.83;2.83;;;18.10;60.60;;;;;;5068567;28;20206;-90
2022/05/29 09:38:05;;;;;;;8.90;2.83;;;18.20;60.20;;;;;;5061882;28;20223;-86
2022/05/29 09:40:36;;;;;;;8.43;3.07;;;18.40;60.20;;;;;;5069148;28;20230;-87
2022/05/29 09:43:17;;;;;;;12.20;3.03;;;18.50;60.20;;;;;;5069293;28;20215;-89
2022/05/29 09:45:44;;;;;;;9.50;3.13;;;18.60;59.10;;;;;;5070282;28;20313;-89
2022/05/29 09:51:21;;;;;;;14.07;4.60;;;18.90;58.30;;;;;;5070962;28;20310;-89
2022/05/29 09:53:52;;;;;;;12.30;4.10;;;19.00;58.60;;;;;;5061808;28;20234;-88
2022/05/29 09:56:29;;;;;;;11.00;3.57;;;19.20;58.90;;;;;;5070416;28;20294;-86
2022/05/29 09:58:59;;;;;;;8.40;3.00;;;19.30;57.50;;;;;;5070205;28;20294;-87
2022/05/29 10:01:32;;;;;;;13.13;4.27;;;19.40;57.30;;;;;;5071979;28;20261;-88
2022/05/29 10:04:03;;;;;;;13.67;3.70;;;19.50;57.50;;;;;;5061540;28;20216;-88
2022/05/29 10:06:33;;;;;;;9.80;3.40;;;19.60;57.10;;;;;;5048834;28;20207;-87
2022/05/29 10:09:10;;;;;;;13.03;4.17;;;19.80;58.20;;;;;;5067630;28;20970;-88
2022/05/29 10:11:39;;;;;;;11.60;4.20;;;19.90;57.30;;;;;;5067483;28;20313;-87
2022/05/29 10:14:25;;;;;;;12.23;4.00;;;20.00;57.40;;;;;;5068069;28;20299;-88
2022/05/29 10:16:54;;;;;;;9.57;3.37;;;20.20;55.90;;;;;;5069057;28;20211;-88
2022/05/29 10:19:38;;;;;;;10.90;3.13;;;20.30;55.10;;;;;;5069981;28;20234;-89
2022/05/29 10:22:14;;;;;;;9.33;3.30;;;20.20;54.30;;;;;;5058256;28;20234;-89
2022/05/29 10:24:41;;;;;;;9.33;2.77;;;20.30;54.90;;;;;;5069963;28;20298;-88
2022/05/29 10:27:13;;;;;;;10.30;3.37;;;20.20;55.10;;;;;;5061782;28;20208;-87
2022/05/29 10:29:41;;;;;;;5.23;2.10;;;20.10;54.90;;;;;;5054353;28;20209;-88
2022/05/29 10:32:21;;;;;;;12.57;4.07;;;20.10;55.10;;;;;;5061334;28;20307;-89
2022/05/29 10:34:50;;;;;;;7.70;2.57;;;19.90;54.70;;;;;;5070050;28;20313;-88
2022/05/29 10:37:28;;;;;;;10.93;3.93;;;19.90;54.80;;;;;;5068950;28;20237;-89
2022/05/29 10:40:11;;;;;;;9.87;2.83;;;19.80;54.90;;;;;;5066110;28;20222;-87
2022/05/29 10:42:44;;;;;;;7.67;2.60;;;19.70;55.00;;;;;;5055120;28;21018;-88
2022/05/29 10:45:19;;;;;;;8.73;3.00;;;19.60;55.70;;;;;;5066639;28;20203;-87
2022/05/29 10:48:12;;;;;;;8.93;2.93;;;19.60;56.20;;;;;;5066960;28;20234;-86
2022/05/29 10:51:04;;;;;;;11.37;4.07;;;19.50;55.50;;;;;;5068475;28;20578;-88
2022/05/29 10:53:44;;;;;;;6.90;2.43;;;19.50;56.00;;;;;;5068676;28;20294;-88
2022/05/29 10:56:25;;;;;;;11.10;4.23;;;19.50;56.00;;;;;;5065062;28;20306;-85
2022/05/29 10:59:23;;;;;;;12.23;3.73;;;19.60;56.40;;;;;;5068998;28;20292;-87
2022/05/29 11:05:10;;;;;;;7.20;2.50;;;19.70;55.50;;;;;;5067462;28;20238;-88
2022/05/29 11:07:59;;;;;;;7.23;2.67;;;19.80;55.50;;;;;;5068672;28;20206;-86
2022/05/29 11:10:41;;;;;;;11.03;3.80;;;19.80;55.40;;;;;;5063902;28;20330;-87
2022/05/29 11:13:20;;;;;;;7.90;3.33;;;19.70;55.00;;;;;;5071436;28;20243;-86
2022/05/29 11:15:57;;;;;;;11.03;3.97;;;19.80;54.90;;;;;;5065969;28;20608;-88
2022/05/29 11:18:55;;;;;;;7.33;2.50;;;19.70;54.30;;;;;;5066940;28;20750;-88
2022/05/29 11:21:36;;;;;;;7.90;2.90;;;19.70;54.30;;;;;;5069549;28;20697;-87
2022/05/29 11:24:29;;;;;;;8.10;2.70;;;19.60;54.30;;;;;;5067737;28;20239;-90
2022/05/29 11:27:12;;;;;;;7.00;2.47;;;19.60;54.50;;;;;;5063597;28;20218;-87
2022/05/29 11:29:56;;;;;;;9.50;3.07;;;19.60;54.80;;;;;;5064664;28;20239;-88
2022/05/29 11:32:34;;;;;;;7.20;2.50;;;19.60;55.20;;;;;;5069644;28;20238;-88
2022/05/29 11:35:15;;;;;;;6.17;2.43;;;19.60;55.30;;;;;;5069943;28;20221;-89
2022/05/29 11:37:59;;;;;;;5.07;2.10;;;19.60;55.00;;;;;;5054095;28;20211;-89
2022/05/29 11:40:34;;;;;;;10.47;3.77;;;19.60;55.00;;;;;;5069514;28;20261;-88
2022/05/29 11:43:09;;;;;;;10.77;3.30;;;19.50;54.60;;;;;;5054456;28;20302;-88
2022/05/29 11:51:24;;;;;;;7.17;2.70;;;19.40;54.60;;;;;;5072681;28;21001;-89
2022/05/29 11:53:57;;;;;;;6.27;2.23;;;19.40;54.70;;;;;;5071639;28;20284;-90
2022/05/29 11:56:33;;;;;;;8.97;3.33;;;19.30;54.50;;;;;;5055064;28;20254;-90
2022/05/29 11:59:05;;;;;;;5.33;2.03;;;19.20;54.00;;;;;;5071354;28;20258;-89
2022/05/29 12:01:37;;;;;;;13.73;4.40;;;19.10;54.60;;;;;;5076668;28;20249;-86
2022/05/29 12:04:11;;;;;;;10.33;2.90;;;19.10;54.80;;;;;;5075867;28;20204;-86
2022/05/29 12:06:42;;;;;;;8.47;2.83;;;19.00;54.80;;;;;;5076921;28;20224;-88
2022/05/29 12:09:17;;;;;;;6.70;2.43;;;19.00;54.90;;;;;;5078622;28;20228;-86
2022/05/29 12:11:50;;;;;;;6.60;2.20;;;19.00;54.80;;;;;;5065800;28;20262;-88
2022/05/29 12:14:22;;;;;;;5.23;2.10;;;19.00;54.90;;;;;;5068511;28;20204;-88
2022/05/29 12:16:56;;;;;;;3.87;1.57;;;19.00;55.00;;;;;;5066844;28;20223;-88
2022/05/29 12:19:30;;;;;;;7.07;2.30;;;19.00;55.40;;;;;;5052873;28;20313;-88
2022/05/29 12:22:00;;;;;;;7.80;2.80;;;19.00;55.30;;;;;;5053747;28;20278;-87
2022/05/29 12:24:30;;;;;;;6.70;2.07;;;19.10;55.50;;;;;;5056723;28;20242;-88
2022/05/29 12:27:09;;;;;;;5.10;2.03;;;19.10;55.60;;;;;;5072902;28;20295;-89
2022/05/29 12:29:45;;;;;;;7.60;2.47;;;19.20;55.30;;;;;;5072520;28;20240;-88
2022/05/29 12:32:19;;;;;;;7.63;2.20;;;19.20;55.00;;;;;;5074864;28;20313;-89
2022/05/29 12:34:56;;;;;;;10.77;3.30;;;19.20;55.10;;;;;;5077775;28;20206;-87
2022/05/29 12:37:59;;;;;;;10.53;3.43;;;19.20;55.10;;;;;;5069787;28;20237;-90
2022/05/29 12:40:36;;;;;;;11.17;3.33;;;19.30;54.70;;;;;;5078164;28;20211;-88
2022/05/29 12:43:31;;;;;;;8.27;3.03;;;19.30;55.10;;;;;;5084158;28;20223;-88
2022/05/29 12:46:15;;;;;;;9.43;3.17;;;19.40;55.20;;;;;;5072811;28;20235;-88
2022/05/29 12:49:15;;;;;;;9.10;3.07;;;19.40;54.30;;;;;;5055676;28;20663;-89
2022/05/29 12:52:17;;;;;;;9.77;3.43;;;19.50;54.80;;;;;;5055317;28;20234;-89
2022/05/29 12:55:21;;;;;;;11.97;4.00;;;19.60;54.40;;;;;;5057094;28;20270;-88
2022/05/29 12:58:20;;;;;;;15.10;4.33;;;19.70;54.40;;;;;;5050977;28;20246;-89
2022/05/29 13:01:01;;;;;;;10.97;4.00;;;19.80;54.30;;;;;;5063693;28;20250;-87
2022/05/29 13:04:20;;;;;;;10.80;3.37;;;20.00;54.80;;;;;;5077714;28;20211;-87
2022/05/29 13:07:21;;;;;;;8.07;3.00;;;20.10;55.10;;;;;;5072932;28;20223;-89
2022/05/29 13:10:12;;;;;;;10.10;3.30;;;20.30;55.00;;;;;;5092629;28;20271;-88
2022/05/29 13:12:44;;;;;;;11.73;3.93;;;20.40;54.00;;;;;;5073275;28;20239;-94
2022/05/29 13:15:23;;;;;;;9.73;2.67;;;20.30;54.10;;;;;;5072812;28;20243;-96
2022/05/29 13:18:01;;;;;;;13.10;4.27;;;20.40;54.20;;;;;;5061593;28;20203;-87
2022/05/29 13:20:28;;;;;;;11.53;3.90;;;20.40;53.00;;;;;;5069930;28;20269;-86
2022/05/29 13:23:01;;;;;;;6.97;2.43;;;20.50;53.80;;;;;;5066112;28;20639;-88
2022/05/29 13:25:30;;;;;;;11.90;4.10;;;20.50;53.70;;;;;;5066317;28;20218;-88
2022/05/29 13:27:58;;;;;;;8.63;3.17;;;20.50;53.20;;;;;;5052349;28;20208;-87
2022/05/29 13:31:12;;;;;;;14.73;4.93;;;20.50;53.00;;;;;;5066366;28;20213;-87
2022/05/29 13:33:53;;;;;;;26.93;9.10;;;20.60;52.40;;;;;;5045462;28;22658;-89
2022/05/29 13:36:58;;;;;;;9.93;3.47;;;20.50;52.60;;;;;;5064796;28;20199;-93
2022/05/29 13:39:47;;;;;;;16.33;5.40;;;20.60;52.40;;;;;;5019417;28;20237;-87
2022/05/29 13:42:41;;;;;;;10.87;3.93;;;20.70;52.30;;;;;;4998778;28;20287;-90
2022/05/29 13:45:41;;;;;;;12.73;3.73;;;20.60;52.30;;;;;;5056334;28;20299;-93
2022/05/29 13:48:18;;;;;;;14.50;4.57;;;20.60;52.50;;;;;;5060795;28;20200;-89
2022/05/29 13:51:15;;;;;;;24.67;8.23;;;20.70;52.60;;;;;;5051018;28;20202;-87
2022/05/29 13:53:59;;;;;;;18.00;6.07;;;20.60;52.40;;;;;;5050753;28;20584;-88